Time;durP1;ratioP1;P1;durP2;ratioP2;P2;SDS_P1;SDS_P2;PMS_P1;PMS_P2;Temp;Humidity;BMP_temperature;BMP_pressure;BME280_temperature;BME280_humidity;BME280_pressure;Samples;Min_cycle;Max_cycle;Signal;HPM_P1;HPM_P2
2024/04/04 00:01:32;;;;;;;5.20;2.63;;;;;;;12.65;38.31;93735.69;5071135;28;20401;-74
2024/04/04 00:03:57;;;;;;;4.70;2.47;;;;;;;12.46;38.82;93723.59;5071521;28;20474;-74
2024/04/04 00:06:23;;;;;;;5.13;2.20;;;;;;;12.50;38.93;93733.59;5070771;28;20409;-74
2024/04/04 00:08:48;;;;;;;8.10;2.50;;;;;;;12.52;38.84;93721.47;5070638;28;20036;-74
2024/04/04 00:11:14;;;;;;;3.85;2.55;;;;;;;12.59;38.79;93737.00;5071040;28;20538;-74
2024/04/04 00:13:39;;;;;;;5.22;2.58;;;;;;;12.48;38.90;93737.34;5071170;28;20040;-75
2024/04/04 00:16:05;;;;;;;5.45;2.67;;;;;;;12.46;39.03;93734.25;5071085;28;20496;-74
2024/04/04 00:18:31;;;;;;;6.80;2.55;;;;;;;12.35;39.57;93732.28;5070784;28;20112;-74
2024/04/04 00:20:57;;;;;;;4.68;2.53;;;;;;;12.44;38.90;93727.66;5070669;28;20056;-74
2024/04/04 00:23:22;;;;;;;7.70;3.20;;;;;;;12.16;39.18;93734.63;5070800;28;20116;-74
2024/04/04 00:25:48;;;;;;;7.75;3.00;;;;;;;12.25;39.27;93733.47;5070878;28;20515;-74
2024/04/04 00:28:13;;;;;;;6.07;3.00;;;;;;;12.37;38.43;93735.44;5070995;28;20512;-74
2024/04/04 00:30:39;;;;;;;6.60;2.45;;;;;;;12.31;38.42;93708.16;5071125;28;20024;-74
2024/04/04 00:33:04;;;;;;;3.45;1.95;;;;;;;12.49;39.00;93719.47;5071023;28;20117;-74
2024/04/04 00:35:30;;;;;;;4.93;2.30;;;;;;;12.50;39.35;93717.59;5070505;28;20123;-74
2024/04/04 00:37:55;;;;;;;3.78;2.15;;;;;;;12.42;39.19;93714.66;5071754;28;20501;-74
2024/04/04 00:40:20;;;;;;;6.55;2.78;;;;;;;12.45;39.27;93710.56;5074170;28;20431;-74
2024/04/04 00:42:52;;;;;;;3.83;2.22;;;;;;;12.51;39.74;93717.28;5075045;28;20025;-74
2024/04/04 00:45:20;;;;;;;6.13;2.30;;;;;;;12.39;39.70;93706.53;5074691;28;20032;-74
2024/04/04 00:47:47;;;;;;;8.00;2.72;;;;;;;12.36;39.12;93702.63;5074640;28;20047;-74
2024/04/04 00:50:13;;;;;;;6.38;2.30;;;;;;;12.25;39.51;93714.00;5074177;28;20063;-74
2024/04/04 00:52:39;;;;;;;2.80;2.25;;;;;;;12.12;39.25;93707.84;5074407;28;20036;-74
2024/04/04 00:55:06;;;;;;;3.72;2.13;;;;;;;11.82;39.13;93709.75;5075168;28;20040;-74
2024/04/04 00:57:32;;;;;;;3.33;2.15;;;;;;;11.93;38.93;93726.91;5073586;28;20294;-74
2024/04/04 00:59:58;;;;;;;2.92;1.38;;;;;;;12.02;38.31;93719.69;5074281;28;20408;-74
2024/04/04 01:02:24;;;;;;;8.52;1.95;;;;;;;12.02;38.21;93724.22;5074217;28;20067;-74
2024/04/04 01:04:49;;;;;;;4.97;1.45;;;;;;;11.59;38.02;93717.22;5074255;28;20044;-74
2024/04/04 01:07:15;;;;;;;3.13;1.42;;;;;;;11.24;38.63;93717.69;5073942;28;20043;-74
2024/04/04 01:09:42;;;;;;;5.85;1.77;;;;;;;11.38;38.71;93718.25;5074796;28;20017;-74
2024/04/04 01:12:08;;;;;;;4.63;2.13;;;;;;;11.66;37.71;93711.41;5074060;28;20521;-74
2024/04/04 01:14:34;;;;;;;2.42;1.50;;;;;;;11.14;38.86;93716.94;5073837;28;20044;-74
2024/04/04 01:17:00;;;;;;;2.45;1.50;;;;;;;10.21;39.51;93716.75;5074121;28;20124;-75
2024/04/04 01:19:25;;;;;;;2.67;1.33;;;;;;;10.09;38.67;93713.91;5073630;28;20107;-74
2024/04/04 01:21:50;;;;;;;3.50;1.23;;;;;;;10.83;38.13;93721.72;5074330;28;20100;-74
2024/04/04 01:24:16;;;;;;;2.58;1.45;;;;;;;10.96;37.50;93718.06;5073504;28;20428;-75
2024/04/04 01:26:41;;;;;;;4.10;1.20;;;;;;;11.32;37.02;93722.19;5073736;28;20039;-74
2024/04/04 01:29:06;;;;;;;3.25;1.52;;;;;;;11.42;36.90;93732.50;5073385;28;20051;-74
2024/04/04 01:31:32;;;;;;;3.53;1.63;;;;;;;11.60;37.62;93723.34;5072337;28;20082;-74
2024/04/04 01:33:57;;;;;;;5.50;1.30;;;;;;;11.21;38.48;93719.09;5074461;28;20032;-74
2024/04/04 01:36:23;;;;;;;4.18;1.83;;;;;;;11.43;37.79;93718.09;5073447;28;20533;-74
2024/04/04 01:38:48;;;;;;;2.50;1.70;;;;;;;11.45;37.09;93721.19;5073841;28;20044;-74
2024/04/04 01:41:14;;;;;;;4.85;1.48;;;;;;;11.33;37.60;93729.88;5073771;28;20047;-74
2024/04/04 01:43:39;;;;;;;4.18;1.15;;;;;;;11.52;36.93;93726.84;5073456;28;20133;-74
2024/04/04 01:46:05;;;;;;;3.08;1.10;;;;;;;11.62;36.68;93729.16;5073788;28;20024;-74
2024/04/04 01:48:30;;;;;;;1.92;1.25;;;;;;;11.45;37.46;93729.97;5073480;28;20448;-74
2024/04/04 01:50:56;;;;;;;3.42;1.50;;;;;;;11.09;39.22;93725.09;5072170;28;20044;-75
2024/04/04 01:53:21;;;;;;;5.90;1.60;;;;;;;11.51;37.95;93735.94;5073377;28;20419;-74
2024/04/04 01:55:47;;;;;;;2.67;1.55;;;;;;;11.68;37.22;93727.88;5073624;28;20037;-74
2024/04/04 01:58:12;;;;;;;3.08;1.23;;;;;;;11.43;36.49;93710.09;5073122;28;20391;-73
2024/04/04 02:00:38;;;;;;;2.55;1.10;;;;;;;11.64;36.44;93728.84;5073511;28;20044;-74
2024/04/04 02:03:04;;;;;;;3.22;1.10;;;;;;;11.62;37.02;93731.81;5073046;28;20037;-75
2024/04/04 02:05:31;;;;;;;3.60;1.20;;;;;;;11.74;37.07;93731.88;5073162;28;20032;-74
2024/04/04 02:07:57;;;;;;;3.55;1.70;;;;;;;11.85;37.83;93737.63;5073169;28;20428;-74
2024/04/04 02:10:22;;;;;;;3.85;1.50;;;;;;;11.62;38.16;93715.03;5072710;28;20116;-74
2024/04/04 02:12:48;;;;;;;4.38;1.60;;;;;;;11.57;37.92;93730.09;5073020;28;20473;-74
2024/04/04 02:15:14;;;;;;;4.35;1.60;;;;;;;11.68;38.29;93730.53;5073147;28;20094;-74
2024/04/04 02:17:40;;;;;;;3.22;1.95;;;;;;;11.70;38.31;93735.53;5072863;28;20037;-74
2024/04/04 02:20:06;;;;;;;4.05;1.95;;;;;;;11.59;38.15;93737.75;5072628;28;20039;-74
2024/04/04 02:22:32;;;;;;;2.92;1.30;;;;;;;11.72;37.95;93736.78;5072637;28;20039;-74
2024/04/04 02:24:57;;;;;;;1.63;1.00;;;;;;;11.67;38.30;93728.97;5073147;28;20121;-74
2024/04/04 02:27:23;;;;;;;4.53;1.48;;;;;;;11.52;38.34;93732.94;5072392;28;20422;-74
2024/04/04 02:29:48;;;;;;;4.22;1.75;;;;;;;11.41;38.55;93731.72;5072457;28;20037;-74
2024/04/04 02:32:13;;;;;;;3.70;1.10;;;;;;;11.51;38.20;93730.59;5072874;28;20047;-74
2024/04/04 02:34:39;;;;;;;5.60;1.42;;;;;;;11.59;37.24;93730.56;5072794;28;20462;-74
2024/04/04 02:37:05;;;;;;;4.20;1.55;;;;;;;11.69;36.97;93728.63;5073016;28;20028;-74
2024/04/04 02:39:31;;;;;;;3.15;1.13;;;;;;;11.66;37.11;93731.94;5072303;28;20041;-74
2024/04/04 02:41:58;;;;;;;1.67;1.23;;;;;;;11.72;37.23;93726.13;5072571;28;20032;-74
2024/04/04 02:44:23;;;;;;;5.18;1.77;;;;;;;11.67;37.07;93723.63;5072524;28;20048;-74
2024/04/04 02:46:49;;;;;;;7.22;1.55;;;;;;;11.55;38.58;93731.50;5072555;28;20370;-74
2024/04/04 02:49:14;;;;;;;6.53;1.73;;;;;;;11.67;37.96;93739.63;5072089;28;20029;-74
2024/04/04 02:51:40;;;;;;;3.72;1.63;;;;;;;11.58;38.08;93736.22;5072322;28;20027;-74
2024/04/04 02:54:05;;;;;;;3.28;1.30;;;;;;;11.44;38.98;93743.63;5072132;28;20068;-74
2024/04/04 02:56:30;;;;;;;8.70;1.90;;;;;;;11.53;39.04;93745.16;5072112;28;20040;-74
2024/04/04 02:58:56;;;;;;;5.10;1.65;;;;;;;11.26;39.70;93745.53;5071563;28;20505;-74
2024/04/04 03:01:21;;;;;;;4.45;1.65;;;;;;;11.35;39.10;93742.84;5071764;28;20546;-74
2024/04/04 03:03:47;;;;;;;4.63;1.42;;;;;;;11.37;39.05;93745.97;5072370;28;20024;-74
2024/04/04 03:06:17;;;;;;;4.00;1.60;;;;;;;11.36;39.46;93745.19;5071705;28;20467;-74
2024/04/04 03:08:43;;;;;;;5.68;1.60;;;;;;;11.23;39.51;93742.75;5071781;28;20042;-74
2024/04/04 03:11:08;;;;;;;4.82;1.55;;;;;;;11.11;39.01;93733.53;5072004;28;20116;-75
2024/04/04 03:13:34;;;;;;;3.88;2.10;;;;;;;11.15;39.19;93729.13;5071771;28;20115;-74
2024/04/04 03:15:59;;;;;;;6.85;2.10;;;;;;;11.18;38.67;93727.72;5072105;28;20024;-75
2024/04/04 03:18:25;;;;;;;6.45;1.90;;;;;;;11.25;39.02;93729.91;5071715;28;20043;-75
2024/04/04 03:20:51;;;;;;;3.15;1.65;;;;;;;11.31;38.47;93732.06;5071090;28;20489;-74
2024/04/04 03:23:16;;;;;;;5.95;2.03;;;;;;;11.20;39.09;93719.44;5071485;28;20111;-74
2024/04/04 03:25:42;;;;;;;6.80;1.65;;;;;;;11.26;39.04;93723.47;5071438;28;20455;-75
2024/04/04 03:28:08;;;;;;;4.07;1.95;;;;;;;11.23;39.07;93724.09;5071876;28;20078;-74
2024/04/04 03:30:33;;;;;;;5.53;1.85;;;;;;;11.24;38.96;93731.78;5071405;28;20041;-74
2024/04/04 03:32:59;;;;;;;3.88;1.90;;;;;;;11.26;38.90;93734.09;5071437;28;20497;-74
2024/04/04 03:35:27;;;;;;;5.82;2.03;;;;;;;11.22;39.14;93730.53;5071311;28;20169;-74
2024/04/04 03:37:53;;;;;;;3.58;2.10;;;;;;;11.16;39.66;93729.91;5071101;28;20082;-74
2024/04/04 03:40:19;;;;;;;3.80;2.33;;;;;;;11.12;39.82;93724.44;5071173;28;20017;-74
2024/04/04 03:42:44;;;;;;;4.38;2.20;;;;;;;11.09;39.33;93729.63;5071555;28;20031;-74
2024/04/04 03:45:09;;;;;;;7.57;3.17;;;;;;;11.17;39.26;93728.81;5071436;28;20036;-74
2024/04/04 03:47:35;;;;;;;6.00;2.25;;;;;;;11.20;39.15;93733.50;5071317;28;20032;-74
2024/04/04 03:50:04;;;;;;;7.07;2.78;;;;;;;11.26;38.91;93728.78;5070972;28;20044;-74
2024/04/04 03:52:30;;;;;;;5.55;2.65;;;;;;;11.13;39.32;93725.22;5071298;28;20032;-74
2024/04/04 03:54:57;;;;;;;8.48;2.45;;;;;;;11.28;39.00;93731.91;5071358;28;20064;-74
2024/04/04 03:57:22;;;;;;;8.73;2.20;;;;;;;11.18;38.89;93725.84;5070961;28;20505;-74
2024/04/04 03:59:48;;;;;;;4.93;1.75;;;;;;;11.18;39.26;93728.50;5071075;28;20047;-74
2024/04/04 04:02:13;;;;;;;6.90;2.17;;;;;;;11.31;39.04;93736.59;5071067;28;20040;-74
2024/04/04 04:04:39;;;;;;;7.65;1.80;;;;;;;11.23;39.12;93729.44;5071423;28;20414;-74
2024/04/04 04:07:04;;;;;;;5.78;1.83;;;;;;;11.27;39.34;93743.66;5071248;28;20070;-74
2024/04/04 04:09:29;;;;;;;4.68;1.73;;;;;;;11.29;39.35;93738.81;5070543;28;20040;-74
2024/04/04 04:11:55;;;;;;;5.85;1.80;;;;;;;11.35;39.00;93732.19;5070603;28;20566;-74
2024/04/04 04:14:20;;;;;;;14.30;2.90;;;;;;;11.36;39.53;93733.75;5070432;28;20726;-74
2024/04/04 04:16:45;;;;;;;4.85;1.95;;;;;;;11.29;39.28;93738.81;5071258;28;20039;-75
2024/04/04 04:19:13;;;;;;;7.43;2.30;;;;;;;11.39;38.42;93743.78;5070930;28;20469;-73
2024/04/04 04:21:38;;;;;;;5.97;2.15;;;;;;;11.34;38.84;93741.31;5071312;28;20074;-75
2024/04/04 04:24:04;;;;;;;4.97;2.10;;;;;;;11.32;38.92;93749.59;5070547;28;20036;-74
2024/04/04 04:26:32;;;;;;;6.15;2.00;;;;;;;11.28;39.91;93731.91;5070817;28;20089;-74
2024/04/04 04:28:58;;;;;;;6.35;1.83;;;;;;;11.33;39.43;93745.06;5070544;28;20036;-74
2024/04/04 04:31:32;;;;;;;12.05;3.10;;;;;;;11.36;39.83;93753.19;5070779;28;20028;-74
2024/04/04 04:33:59;;;;;;;12.00;2.08;;;;;;;11.49;39.71;93760.19;5070981;28;20465;-74
2024/04/04 04:36:31;;;;;;;10.27;2.50;;;;;;;11.10;40.15;93757.81;5071020;28;20040;-75
2024/04/04 04:38:56;;;;;;;6.50;2.08;;;;;;;11.35;39.96;93753.50;5070604;28;20445;-74
2024/04/04 04:41:22;;;;;;;8.50;2.05;;;;;;;11.37;40.33;93760.06;5070397;28;20045;-74
2024/04/04 04:43:48;;;;;;;5.18;2.45;;;;;;;11.31;40.27;93752.56;5070479;28;20043;-73
2024/04/04 04:46:14;;;;;;;7.00;2.20;;;;;;;11.37;40.15;93767.28;5070346;28;20225;-75
2024/04/04 04:48:40;;;;;;;8.15;2.65;;;;;;;11.38;39.77;93768.84;5068165;28;20025;-75
2024/04/04 04:51:06;;;;;;;9.50;2.40;;;;;;;11.43;39.59;93771.34;5068023;28;20414;-75
2024/04/04 04:53:31;;;;;;;6.47;2.83;;;;;;;11.42;40.21;93769.78;5068828;28;20037;-75
2024/04/04 04:55:57;;;;;;;8.85;2.75;;;;;;;11.43;40.15;93772.13;5069123;28;20047;-75
2024/04/04 04:58:22;;;;;;;8.73;1.83;;;;;;;11.37;40.69;93764.63;5067991;28;20052;-76
2024/04/04 05:00:51;;;;;;;8.70;2.03;;;;;;;11.48;40.79;93768.50;5070216;28;20017;-76
2024/04/04 05:03:17;;;;;;;9.48;2.75;;;;;;;10.54;42.41;93783.53;5069043;28;20457;-77
2024/04/04 05:05:42;;;;;;;4.75;2.13;;;;;;;10.28;42.69;93801.31;5070091;28;20033;-76
2024/04/04 05:08:07;;;;;;;14.02;2.83;;;;;;;10.99;40.42;93791.97;5070516;28;20033;-77
2024/04/04 05:10:33;;;;;;;9.80;2.00;;;;;;;11.29;41.07;93781.41;5070793;28;20157;-76
2024/04/04 05:12:58;;;;;;;8.50;2.40;;;;;;;11.54;40.52;93784.00;5070755;28;20424;-77
2024/04/04 05:15:24;;;;;;;7.65;2.30;;;;;;;11.60;40.28;93784.59;5069838;28;20115;-77
2024/04/04 05:17:49;;;;;;;10.15;3.17;;;;;;;11.73;40.32;93788.19;5069792;28;20068;-77
2024/04/04 05:20:15;;;;;;;14.30;3.80;;;;;;;11.59;39.00;93794.47;5070082;28;20078;-77
2024/04/04 05:22:43;;;;;;;28.65;6.63;;;;;;;11.44;39.08;93788.88;5070685;28;20060;-76
2024/04/04 05:25:14;;;;;;;26.48;6.35;;;;;;;11.62;38.95;93800.28;5071961;28;20023;-76
2024/04/04 05:27:43;;;;;;;26.98;5.43;;;;;;;11.72;39.66;93800.72;5073846;28;20043;-76
2024/04/04 05:30:14;;;;;;;30.80;7.28;;;;;;;11.87;39.28;93808.19;5073735;28;20064;-77
2024/04/04 05:32:42;;;;;;;17.73;6.47;;;;;;;11.76;39.15;93806.97;5073838;28;20409;-77
2024/04/04 05:35:08;;;;;;;15.85;5.55;;;;;;;11.47;40.34;93809.53;5073728;28;20032;-77
2024/04/04 05:37:35;;;;;;;18.90;6.22;;;;;;;11.58;41.57;93810.81;5073890;28;20032;-77
2024/04/04 05:40:00;;;;;;;15.88;6.15;;;;;;;11.75;39.74;93810.72;5074165;28;20099;-76
2024/04/04 05:42:29;;;;;;;13.85;4.53;;;;;;;11.61;39.55;93810.16;5073125;28;20173;-76
2024/04/04 05:44:55;;;;;;;21.42;5.20;;;;;;;11.44;40.26;93804.88;5072940;28;20037;-76
2024/04/04 05:47:20;;;;;;;14.43;5.72;;;;;;;11.66;39.75;93809.97;5073563;28;20040;-77
2024/04/04 05:49:46;;;;;;;21.77;5.30;;;;;;;11.76;40.76;93806.97;5072973;28;20041;-76
2024/04/04 05:52:11;;;;;;;16.75;5.07;;;;;;;11.85;40.86;93817.56;5073646;28;20031;-75
2024/04/04 05:54:39;;;;;;;12.68;5.35;;;;;;;11.85;41.00;93805.03;5074031;28;20493;-77
2024/04/04 05:57:05;;;;;;;14.70;5.53;;;;;;;11.85;41.56;93810.38;5071907;28;20040;-76
2024/04/04 05:59:30;;;;;;;13.32;4.75;;;;;;;11.90;41.60;93814.72;5072165;28;20043;-77
2024/04/04 06:01:56;;;;;;;12.25;4.95;;;;;;;11.97;40.75;93809.69;5073070;28;20112;-77
2024/04/04 06:04:21;;;;;;;37.88;22.90;;;;;;;12.20;40.02;93802.97;5072777;28;20046;-76
2024/04/04 06:06:46;;;;;;;30.77;18.55;;;;;;;12.31;39.90;93798.06;5073097;28;20470;-76
2024/04/04 06:09:13;;;;;;;29.27;16.25;;;;;;;12.47;39.30;93799.81;5073157;28;20039;-77
2024/04/04 06:11:39;;;;;;;22.23;8.13;;;;;;;12.44;39.17;93797.00;5073086;28;20029;-77
2024/04/04 06:14:05;;;;;;;25.55;6.25;;;;;;;12.78;38.39;93804.78;5072784;28;20032;-76
2024/04/04 06:16:30;;;;;;;17.25;5.68;;;;;;;12.98;38.33;93803.22;5072937;28;20046;-74
2024/04/04 06:18:56;;;;;;;17.80;5.88;;;;;;;12.51;37.71;93807.97;5073047;28;20032;-74
2024/04/04 06:21:21;;;;;;;19.65;8.52;;;;;;;12.59;38.54;93817.81;5072216;28;20032;-74
2024/04/04 06:23:46;;;;;;;21.42;6.95;;;;;;;12.89;38.43;93823.88;5072196;28;20036;-74
2024/04/04 06:26:12;;;;;;;16.25;5.30;;;;;;;13.09;38.52;93823.06;5072096;28;20489;-74
2024/04/04 06:28:37;;;;;;;26.52;8.02;;;;;;;13.24;38.24;93829.69;5072273;28;20040;-77
2024/04/04 06:31:03;;;;;;;22.75;7.65;;;;;;;12.79;39.37;93832.25;5072518;28;20073;-76
2024/04/04 06:33:28;;;;;;;17.17;6.25;;;;;;;13.06;38.74;93820.25;5071937;28;20461;-76
2024/04/04 06:35:53;;;;;;;27.67;7.65;;;;;;;12.86;38.24;93827.94;5071887;28;20115;-77
2024/04/04 06:38:19;;;;;;;26.05;5.75;;;;;;;12.67;38.92;93834.84;5072064;28;20400;-77
2024/04/04 06:40:44;;;;;;;25.40;6.40;;;;;;;12.89;39.84;93832.66;5071859;28;20044;-76
2024/04/04 06:43:10;;;;;;;17.48;6.75;;;;;;;13.23;39.00;93823.56;5072522;28;20025;-76
2024/04/04 06:45:35;;;;;;;26.35;6.75;;;;;;;13.54;39.05;93820.44;5071532;28;20162;-77
2024/04/04 06:48:01;;;;;;;19.45;6.80;;;;;;;13.85;38.81;93827.94;5071684;28;20029;-77
2024/04/04 06:50:28;;;;;;;21.63;5.53;;;;;;;13.97;38.13;93833.31;5071906;28;20044;-76
2024/04/04 06:52:53;;;;;;;24.25;6.20;;;;;;;14.03;38.78;93825.88;5071970;28;20045;-74
2024/04/04 06:55:19;;;;;;;25.48;5.72;;;;;;;14.01;38.16;93825.41;5071620;28;20074;-73
2024/04/04 06:57:45;;;;;;;14.18;6.30;;;;;;;14.28;38.06;93831.97;5072169;28;20140;-74
2024/04/04 07:00:11;;;;;;;22.45;5.88;;;;;;;14.31;36.82;93826.75;5071807;28;20038;-74
2024/04/04 07:02:40;;;;;;;32.88;6.85;;;;;;;14.21;38.39;93827.19;5071700;28;20253;-74
2024/04/04 07:05:09;;;;;;;25.30;6.15;;;;;;;14.24;36.99;93842.56;5071671;28;20067;-74
2024/04/04 07:07:35;;;;;;;5.95;2.67;;;;;;;14.36;33.68;93831.09;5071584;28;20509;-74
2024/04/04 07:10:03;;;;;;;7.90;2.05;;;;;;;14.13;29.64;93836.13;5071783;28;20032;-74
2024/04/04 07:12:28;;;;;;;10.63;2.15;;;;;;;13.77;30.34;93833.41;5071533;28;20036;-74
2024/04/04 07:14:54;;;;;;;8.23;1.63;;;;;;;13.96;30.34;93836.31;5071254;28;20536;-73
2024/04/04 07:17:19;;;;;;;8.68;1.83;;;;;;;14.19;30.32;93837.44;5071763;28;20386;-74
2024/04/04 07:19:44;;;;;;;2.88;1.67;;;;;;;13.92;29.26;93830.88;5071117;28;20068;-74
2024/04/04 07:22:10;;;;;;;9.75;2.40;;;;;;;13.92;30.37;93832.75;5071607;28;20473;-74
2024/04/04 07:24:35;;;;;;;6.68;1.75;;;;;;;13.84;29.24;93825.63;5071429;28;20040;-74
2024/04/04 07:27:00;;;;;;;8.00;2.20;;;;;;;13.48;29.73;93835.09;5071183;28;20444;-74
2024/04/04 07:29:26;;;;;;;6.93;1.33;;;;;;;13.54;30.88;93841.81;5070771;28;20113;-74
2024/04/04 07:31:51;;;;;;;6.10;1.50;;;;;;;13.49;30.34;93838.56;5070877;28;20548;-75
2024/04/04 07:34:16;;;;;;;5.00;2.10;;;;;;;13.79;30.45;93839.97;5070993;28;20104;-75
2024/04/04 07:36:42;;;;;;;4.60;1.35;;;;;;;13.34;29.97;93834.63;5071597;28;20021;-75
2024/04/04 07:39:09;;;;;;;8.60;1.50;;;;;;;13.47;30.56;93838.09;5071295;28;20056;-75
2024/04/04 07:41:35;;;;;;;6.80;1.63;;;;;;;13.65;30.44;93828.81;5071431;28;20086;-75
2024/04/04 07:44:01;;;;;;;7.70;2.10;;;;;;;13.79;30.37;93841.88;5070837;28;20551;-75
2024/04/04 07:46:27;;;;;;;7.22;1.65;;;;;;;13.79;30.01;93834.63;5070996;28;20020;-75
2024/04/04 07:48:53;;;;;;;4.47;1.52;;;;;;;14.09;29.90;93833.31;5070853;28;20040;-75
2024/04/04 07:51:19;;;;;;;3.50;1.55;;;;;;;14.09;29.67;93835.19;5070583;28;20442;-75
2024/04/04 07:53:44;;;;;;;6.50;2.15;;;;;;;14.06;29.55;93833.22;5070847;28;20063;-75
2024/04/04 07:56:11;;;;;;;14.75;2.22;;;;;;;13.92;29.80;93825.53;5070934;28;20049;-75
2024/04/04 07:58:37;;;;;;;6.70;2.28;;;;;;;13.64;30.78;93829.94;5070679;28;20078;-75
2024/04/04 08:01:04;;;;;;;5.97;1.45;;;;;;;13.75;31.52;93834.50;5071152;28;20560;-75
2024/04/04 08:03:31;;;;;;;15.18;2.35;;;;;;;13.94;30.95;93833.97;5070614;28;20041;-75
2024/04/04 08:05:57;;;;;;;4.82;1.48;;;;;;;14.05;30.74;93831.66;5070775;28;20036;-75
2024/04/04 08:08:23;;;;;;;6.13;1.30;;;;;;;13.95;31.32;93835.53;5071109;28;20037;-75
2024/04/04 08:10:51;;;;;;;5.07;1.50;;;;;;;13.97;30.98;93836.00;5070789;28;20090;-75
2024/04/04 08:13:17;;;;;;;6.82;1.67;;;;;;;13.97;30.67;93837.88;5070579;28;20025;-75
2024/04/04 08:15:43;;;;;;;10.07;1.73;;;;;;;13.99;31.35;93830.28;5070840;28;20077;-75
2024/04/04 08:18:08;;;;;;;8.68;1.67;;;;;;;13.97;31.69;93829.88;5070728;28;20107;-75
2024/04/04 08:20:34;;;;;;;7.20;2.05;;;;;;;14.22;31.92;93841.34;5070360;28;20530;-75
2024/04/04 08:23:00;;;;;;;7.38;1.70;;;;;;;13.85;32.00;93822.59;5070570;28;20623;-75
2024/04/04 08:25:28;;;;;;;6.22;1.52;;;;;;;13.75;32.06;93842.53;5070631;28;20028;-75
2024/04/04 08:27:53;;;;;;;7.10;1.30;;;;;;;13.78;32.20;93824.28;5070965;28;20013;-75
2024/04/04 08:30:18;;;;;;;4.25;1.40;;;;;;;13.90;31.90;93841.09;5070169;28;20037;-75
2024/04/04 08:32:44;;;;;;;5.47;1.40;;;;;;;13.85;32.72;93835.97;5070584;28;20504;-75
2024/04/04 08:35:09;;;;;;;4.88;1.17;;;;;;;13.96;32.65;93818.38;5070583;28;20032;-75
2024/04/04 08:37:38;;;;;;;3.35;1.27;;;;;;;14.27;32.84;93836.56;5070822;28;20120;-75
2024/04/04 08:40:04;;;;;;;6.20;1.63;;;;;;;14.26;32.21;93832.31;5070730;28;20016;-75
2024/04/04 08:42:29;;;;;;;7.18;1.50;;;;;;;13.90;32.34;93814.38;5070007;28;20501;-75
2024/04/04 08:44:56;;;;;;;5.45;1.55;;;;;;;14.05;32.48;93839.66;5070454;28;20086;-75
2024/04/04 08:47:24;;;;;;;9.98;1.48;;;;;;;13.87;33.55;93851.69;5070484;28;20032;-75
2024/04/04 08:49:51;;;;;;;6.18;1.30;;;;;;;13.99;33.01;93841.00;5070595;28;20047;-75
2024/04/04 08:52:18;;;;;;;4.88;1.40;;;;;;;14.35;33.33;93838.34;5070299;28;20107;-74
2024/04/04 08:54:44;;;;;;;6.07;1.50;;;;;;;14.42;31.90;93833.19;5070685;28;20017;-75
2024/04/04 08:57:09;;;;;;;7.85;1.70;;;;;;;14.07;32.59;93832.09;5069865;28;20095;-75
2024/04/04 08:59:35;;;;;;;8.02;1.80;;;;;;;14.02;32.52;93835.00;5071136;28;20052;-75
2024/04/04 09:02:01;;;;;;;10.35;1.80;;;;;;;14.08;32.25;93833.66;5073924;28;20029;-75
2024/04/04 09:04:28;;;;;;;4.85;1.40;;;;;;;13.97;33.30;93832.53;5073743;28;20032;-75
2024/04/04 09:06:54;;;;;;;10.02;1.65;;;;;;;13.99;33.81;93831.06;5074753;28;20107;-75
2024/04/04 09:09:20;;;;;;;6.63;2.05;;;;;;;14.11;33.45;93833.00;5073678;28;20124;-75
2024/04/04 09:11:49;;;;;;;6.95;1.42;;;;;;;14.05;34.09;93835.09;5073556;28;20041;-75
2024/04/04 09:14:15;;;;;;;7.05;1.75;;;;;;;14.03;34.43;93825.88;5074044;28;20029;-75
2024/04/04 09:16:42;;;;;;;13.45;1.80;;;;;;;14.26;33.97;93818.94;5073905;28;20051;-75
2024/04/04 09:19:13;;;;;;;19.25;1.98;;;;;;;14.15;34.90;93831.19;5074419;28;20504;-75
2024/04/04 09:21:39;;;;;;;8.73;1.58;;;;;;;14.16;34.08;93822.06;5074251;28;20040;-75
2024/04/04 09:24:08;;;;;;;6.57;1.70;;;;;;;14.35;33.24;93824.94;5073731;28;20037;-75
2024/04/04 09:26:34;;;;;;;4.25;1.15;;;;;;;14.08;34.23;93821.03;5073744;28;20062;-75
2024/04/04 09:29:01;;;;;;;3.05;1.50;;;;;;;14.23;33.41;93816.94;5073573;28;20192;-75
2024/04/04 09:31:29;;;;;;;7.55;2.15;;;;;;;14.27;32.79;93825.88;5073493;28;20017;-75
2024/04/04 09:33:59;;;;;;;7.45;1.30;;;;;;;14.31;33.07;93816.03;5074062;28;20047;-75
2024/04/04 09:36:36;;;;;;;4.05;1.13;;;;;;;14.44;32.63;93820.25;5073143;28;20520;-75
2024/04/04 09:39:02;;;;;;;4.97;1.17;;;;;;;14.58;32.62;93811.91;5073571;28;20060;-75
2024/04/04 09:41:29;;;;;;;4.30;1.70;;;;;;;14.78;32.59;93823.56;5073297;28;20032;-75
2024/04/04 09:43:57;;;;;;;5.00;1.33;;;;;;;14.68;32.62;93824.03;5073136;28;20119;-75
2024/04/04 09:46:24;;;;;;;4.13;0.98;;;;;;;14.83;31.14;93809.94;5073013;28;20088;-75
2024/04/04 09:48:51;;;;;;;5.10;1.27;;;;;;;14.82;31.38;93816.41;5074083;28;20032;-75
2024/04/04 09:51:17;;;;;;;3.20;1.45;;;;;;;14.78;30.82;93812.84;5072547;28;20041;-75
2024/04/04 09:53:43;;;;;;;2.45;1.02;;;;;;;14.74;31.29;93814.66;5072279;28;20059;-75
2024/04/04 09:56:11;;;;;;;4.00;1.45;;;;;;;14.84;32.32;93816.88;5071390;28;20452;-75
2024/04/04 09:58:38;;;;;;;2.20;1.13;;;;;;;14.73;31.86;93800.50;5071185;28;20044;-75
2024/04/04 10:01:30;;;;;;;5.60;1.05;;;;;;;14.57;31.92;93813.78;5072624;28;20044;-75
2024/04/04 10:03:55;;;;;;;4.10;1.08;;;;;;;14.55;32.20;93808.00;5067957;28;20036;-75
2024/04/04 10:06:40;;;;;;;6.65;1.75;;;;;;;14.71;32.64;93812.66;5072568;28;20432;-75
2024/04/04 10:09:19;;;;;;;3.53;1.25;;;;;;;14.75;32.64;93808.19;5072744;28;20108;-75
2024/04/04 10:11:45;;;;;;;4.28;1.00;;;;;;;14.98;30.78;93801.19;5072600;28;20120;-75
2024/04/04 10:14:28;;;;;;;5.50;1.30;;;;;;;15.01;30.84;93808.53;5073389;28;20036;-75
2024/04/04 10:16:54;;;;;;;1.67;0.93;;;;;;;15.10;30.61;93803.84;5072663;28;20037;-75
2024/04/04 10:19:21;;;;;;;8.15;1.95;;;;;;;14.96;31.24;93798.09;5072881;28;20017;-74
2024/04/04 10:21:50;;;;;;;5.60;1.95;;;;;;;14.95;30.72;93800.00;5073581;28;20081;-75
2024/04/04 10:24:26;;;;;;;7.45;1.17;;;;;;;14.76;30.76;93781.09;5072867;28;20036;-75
2024/04/04 10:26:57;;;;;;;3.80;1.10;;;;;;;14.67;30.92;93801.09;5072615;28;20038;-75
2024/04/04 10:29:23;;;;;;;6.80;1.10;;;;;;;14.76;30.99;93809.75;5072621;28;20028;-75
2024/04/04 10:31:49;;;;;;;4.57;1.67;;;;;;;14.71;31.77;93804.63;5072257;28;20461;-75
2024/04/04 10:34:15;;;;;;;3.13;1.65;;;;;;;14.59;31.91;93806.22;5072156;28;20032;-75
2024/04/04 10:36:42;;;;;;;3.38;1.10;;;;;;;14.95;31.43;93804.56;5072256;28;20030;-75
2024/04/04 10:39:12;;;;;;;2.53;1.10;;;;;;;14.98;31.92;93803.88;5071896;28;20097;-75
2024/04/04 10:41:38;;;;;;;3.38;1.20;;;;;;;15.14;32.56;93815.44;5071808;28;20058;-75
2024/04/04 10:44:09;;;;;;;4.63;1.40;;;;;;;15.16;31.77;93812.38;5072218;28;20052;-75
2024/04/04 10:46:39;;;;;;;5.07;1.40;;;;;;;15.15;31.83;93803.59;5071496;28;20044;-75
2024/04/04 10:49:05;;;;;;;3.17;0.88;;;;;;;15.27;31.61;93802.75;5071973;28;20553;-75
2024/04/04 10:51:31;;;;;;;5.57;1.55;;;;;;;15.05;31.86;93798.72;5071640;28;20127;-75
2024/04/04 10:53:57;;;;;;;1.88;1.13;;;;;;;15.09;31.73;93809.53;5071612;28;20510;-75
2024/04/04 10:56:23;;;;;;;4.97;1.20;;;;;;;15.39;32.89;93816.88;5071614;28;20032;-75
2024/04/04 10:58:49;;;;;;;3.60;1.45;;;;;;;15.48;31.38;93807.94;5071533;28;20582;-75
2024/04/04 11:01:15;;;;;;;2.63;1.05;;;;;;;15.60;30.39;93807.84;5071603;28;20107;-74
2024/04/04 11:03:40;;;;;;;4.40;1.10;;;;;;;15.84;30.98;93810.41;5072057;28;20394;-75
2024/04/04 11:06:06;;;;;;;5.60;1.48;;;;;;;15.88;30.08;93808.56;5070825;28;20039;-75
2024/04/04 11:08:32;;;;;;;2.13;1.20;;;;;;;15.59;30.74;93811.66;5071469;28;20087;-75
2024/04/04 11:10:57;;;;;;;6.82;1.50;;;;;;;15.44;31.40;93803.25;5071396;28;20628;-75
2024/04/04 11:13:22;;;;;;;4.05;1.00;;;;;;;15.41;31.65;93808.47;5071574;28;20039;-75
2024/04/04 11:15:48;;;;;;;5.03;1.27;;;;;;;15.40;31.34;93805.03;5071888;28;20374;-75
2024/04/04 11:18:13;;;;;;;2.40;1.13;;;;;;;15.45;30.94;93814.75;5071272;28;20037;-75
2024/04/04 11:20:38;;;;;;;7.78;1.13;;;;;;;15.56;30.58;93799.72;5070731;28;20117;-75
2024/04/04 11:23:04;;;;;;;1.33;1.02;;;;;;;15.71;30.04;93806.22;5071487;28;20044;-76
2024/04/04 11:25:29;;;;;;;6.28;1.30;;;;;;;15.66;30.29;93799.22;5070841;28;20477;-75
2024/04/04 11:27:54;;;;;;;3.33;0.98;;;;;;;15.84;30.28;93800.44;5071498;28;20024;-75